Middleton, Massachusetts
Current Conditions -  °F | °C
As of 5:53 PM on Wednesday 22 Oct 2014 (Local Time) from KBVY Reporting Station
Moderate Rain Moderate Rain  
Wind Chill: 50°   Ceiling: 700
Heat Index: 50°   Visibility: 1.2mi
Dew Point: 48°   Wind: 25mph
Humidity: 93%   Direction: 40°NE
Pressure: 29.9"   Gusts: 43mph
Location:  42.6°N, 71.02°W
Report Text: KBVY 222153Z 04022G37KT 1 1/4SM RA BR BKN007 OVC011 10/09 A2990 RMK AO2 PK WND 03041/2120 SLP121 P0011 T01000089
Loading
Personal Weather Stations






























Interactive Weather Map
Tropical Storm Tracking
New forecast layout! Learn more

10-Day Weather Forecast

Advertisements
Track Severe Weather on mobile